sensor_id;sensor_type;location;lat;lon;timestamp;temperature;humidity
296;DHT22;132;48.770;9.200;2023-04-12T00:01:41;9.90;1.00
296;DHT22;132;48.770;9.200;2023-04-12T00:04:08;10.00;1.00
296;DHT22;132;48.770;9.200;2023-04-12T00:06:35;11.00;1.00
296;DHT22;132;48.770;9.200;2023-04-12T00:09:01;9.90;1.00
296;DHT22;132;48.770;9.200;2023-04-12T00:11:30;10.70;1.00
296;DHT22;132;48.770;9.200;2023-04-12T00:13:57;11.20;1.00
296;DHT22;132;48.770;9.200;2023-04-12T00:16:23;9.70;1.00
296;DHT22;132;48.770;9.200;2023-04-12T00:18:49;11.60;1.00
296;DHT22;132;48.770;9.200;2023-04-12T00:21:16;11.20;1.00
296;DHT22;132;48.770;9.200;2023-04-12T00:23:45;11.60;1.00
296;DHT22;132;48.770;9.200;2023-04-12T00:26:13;11.30;1.00
296;DHT22;132;48.770;9.200;2023-04-12T00:28:41;9.70;1.00
296;DHT22;132;48.770;9.200;2023-04-12T00:31:08;9.70;1.00
296;DHT22;132;48.770;9.200;2023-04-12T00:33:34;9.90;1.00
296;DHT22;132;48.770;9.200;2023-04-12T00:36:01;9.30;1.00
296;DHT22;132;48.770;9.200;2023-04-12T00:38:27;10.70;1.00
296;DHT22;132;48.770;9.200;2023-04-12T00:40:54;11.90;1.00
296;DHT22;132;48.770;9.200;2023-04-12T00:43:21;9.50;1.00
296;DHT22;132;48.770;9.200;2023-04-12T00:45:49;11.00;1.00
296;DHT22;132;48.770;9.200;2023-04-12T00:48:16;9.00;1.00
296;DHT22;132;48.770;9.200;2023-04-12T00:50:44;10.80;1.00
296;DHT22;132;48.770;9.200;2023-04-12T00:53:13;9.70;1.00
296;DHT22;132;48.770;9.200;2023-04-12T00:55:42;9.90;1.00
296;DHT22;132;48.770;9.200;2023-04-12T00:58:09;9.00;1.00
296;DHT22;132;48.770;9.200;2023-04-12T01:00:35;10.40;1.00
296;DHT22;132;48.770;9.200;2023-04-12T01:03:03;8.60;1.00
296;DHT22;132;48.770;9.200;2023-04-12T01:05:38;9.00;1.00
296;DHT22;132;48.770;9.200;2023-04-12T01:11:25;8.50;1.00
296;DHT22;132;48.770;9.200;2023-04-12T01:14:10;8.40;1.00
296;DHT22;132;48.770;9.200;2023-04-12T01:16:43;8.40;1.00
296;DHT22;132;48.770;9.200;2023-04-12T01:27:53;8.30;1.00
296;DHT22;132;48.770;9.200;2023-04-12T01:30:20;10.00;1.00
296;DHT22;132;48.770;9.200;2023-04-12T01:32:49;9.50;1.00
296;DHT22;132;48.770;9.200;2023-04-12T01:35:18;10.30;1.00
296;DHT22;132;48.770;9.200;2023-04-12T01:37:46;10.40;1.00
296;DHT22;132;48.770;9.200;2023-04-12T01:40:13;9.60;1.00
296;DHT22;132;48.770;9.200;2023-04-12T01:42:39;8.10;1.00
296;DHT22;132;48.770;9.200;2023-04-12T01:45:06;8.40;1.00
296;DHT22;132;48.770;9.200;2023-04-12T01:47:33;8.20;1.00
296;DHT22;132;48.770;9.200;2023-04-12T01:52:52;8.20;1.00
296;DHT22;132;48.770;9.200;2023-04-12T01:55:22;10.40;1.00
296;DHT22;132;48.770;9.200;2023-04-12T01:57:51;8.10;1.00
296;DHT22;132;48.770;9.200;2023-04-12T02:00:19;9.10;1.00
296;DHT22;132;48.770;9.200;2023-04-12T02:02:46;9.40;1.00
296;DHT22;132;48.770;9.200;2023-04-12T02:05:12;9.20;1.00
296;DHT22;132;48.770;9.200;2023-04-12T02:07:40;8.60;1.00
296;DHT22;132;48.770;9.200;2023-04-12T02:10:07;8.20;1.00
296;DHT22;132;48.770;9.200;2023-04-12T02:12:39;8.20;1.00
296;DHT22;132;48.770;9.200;2023-04-12T02:15:06;8.10;1.00
296;DHT22;132;48.770;9.200;2023-04-12T02:17:33;8.10;1.00
296;DHT22;132;48.770;9.200;2023-04-12T02:20:04;9.40;1.00
296;DHT22;132;48.770;9.200;2023-04-12T02:22:37;8.10;1.00
296;DHT22;132;48.770;9.200;2023-04-12T02:25:03;9.80;1.00
296;DHT22;132;48.770;9.200;2023-04-12T02:27:31;8.00;1.00
296;DHT22;132;48.770;9.200;2023-04-12T02:30:01;8.50;1.00
296;DHT22;132;48.770;9.200;2023-04-12T02:32:32;8.00;1.00
296;DHT22;132;48.770;9.200;2023-04-12T02:35:14;8.00;1.00
296;DHT22;132;48.770;9.200;2023-04-12T02:37:46;8.00;1.00
296;DHT22;132;48.770;9.200;2023-04-12T02:40:14;8.00;1.00
296;DHT22;132;48.770;9.200;2023-04-12T02:42:41;8.00;1.00
296;DHT22;132;48.770;9.200;2023-04-12T02:45:10;7.90;1.00
296;DHT22;132;48.770;9.200;2023-04-12T02:47:37;8.00;1.00
296;DHT22;132;48.770;9.200;2023-04-12T02:50:06;7.70;1.00
296;DHT22;132;48.770;9.200;2023-04-12T02:52:43;8.00;1.00
296;DHT22;132;48.770;9.200;2023-04-12T02:55:12;8.00;1.00
296;DHT22;132;48.770;9.200;2023-04-12T02:57:38;8.20;1.00
296;DHT22;132;48.770;9.200;2023-04-12T03:00:07;8.40;1.00
296;DHT22;132;48.770;9.200;2023-04-12T03:02:47;8.00;1.00
296;DHT22;132;48.770;9.200;2023-04-12T03:05:26;7.90;1.00
296;DHT22;132;48.770;9.200;2023-04-12T03:07:52;9.60;1.00
296;DHT22;132;48.770;9.200;2023-04-12T03:10:24;8.00;1.00
296;DHT22;132;48.770;9.200;2023-04-12T03:13:00;7.90;1.00
296;DHT22;132;48.770;9.200;2023-04-12T03:15:48;7.90;1.00
296;DHT22;132;48.770;9.200;2023-04-12T03:18:18;8.00;1.00
296;DHT22;132;48.770;9.200;2023-04-12T03:20:51;9.10;1.00
296;DHT22;132;48.770;9.200;2023-04-12T03:23:18;8.00;1.00
296;DHT22;132;48.770;9.200;2023-04-12T03:25:50;8.30;1.00
296;DHT22;132;48.770;9.200;2023-04-12T03:28:35;8.10;1.00
296;DHT22;132;48.770;9.200;2023-04-12T03:31:04;8.60;1.00
296;DHT22;132;48.770;9.200;2023-04-12T03:33:45;8.10;1.00
296;DHT22;132;48.770;9.200;2023-04-12T03:36:22;8.10;1.00
296;DHT22;132;48.770;9.200;2023-04-12T03:38:54;8.10;1.00
296;DHT22;132;48.770;9.200;2023-04-12T03:41:21;8.40;1.00
296;DHT22;132;48.770;9.200;2023-04-12T03:43:51;8.30;1.00
296;DHT22;132;48.770;9.200;2023-04-12T03:46:18;8.40;1.00
296;DHT22;132;48.770;9.200;2023-04-12T03:48:52;8.60;1.00
296;DHT22;132;48.770;9.200;2023-04-12T03:51:20;8.10;1.00
296;DHT22;132;48.770;9.200;2023-04-12T03:53:48;8.30;1.00
296;DHT22;132;48.770;9.200;2023-04-12T03:56:15;8.70;1.00
296;DHT22;132;48.770;9.200;2023-04-12T03:58:45;8.10;1.00
296;DHT22;132;48.770;9.200;2023-04-12T04:01:14;9.80;1.00
296;DHT22;132;48.770;9.200;2023-04-12T04:03:44;8.00;1.00
296;DHT22;132;48.770;9.200;2023-04-12T04:06:30;9.00;1.00
296;DHT22;132;48.770;9.200;2023-04-12T04:08:57;7.80;1.00
296;DHT22;132;48.770;9.200;2023-04-12T04:11:25;8.00;1.00
296;DHT22;132;48.770;9.200;2023-04-12T04:13:57;8.30;1.00
296;DHT22;132;48.770;9.200;2023-04-12T04:16:23;7.90;1.00
296;DHT22;132;48.770;9.200;2023-04-12T04:18:51;8.20;1.00
296;DHT22;132;48.770;9.200;2023-04-12T04:21:20;7.80;1.00
296;DHT22;132;48.770;9.200;2023-04-12T04:23:48;7.60;1.00
296;DHT22;132;48.770;9.200;2023-04-12T04:26:17;8.70;1.00
296;DHT22;132;48.770;9.200;2023-04-12T04:28:59;9.30;1.00
296;DHT22;132;48.770;9.200;2023-04-12T04:31:35;8.20;1.00
296;DHT22;132;48.770;9.200;2023-04-12T04:34:04;8.10;1.00
296;DHT22;132;48.770;9.200;2023-04-12T04:36:33;7.90;1.00
296;DHT22;132;48.770;9.200;2023-04-12T04:39:01;7.80;1.00
296;DHT22;132;48.770;9.200;2023-04-12T04:41:38;7.90;1.00
296;DHT22;132;48.770;9.200;2023-04-12T04:44:10;7.90;1.00
296;DHT22;132;48.770;9.200;2023-04-12T04:46:41;7.90;1.00
296;DHT22;132;48.770;9.200;2023-04-12T04:49:08;7.90;1.00
296;DHT22;132;48.770;9.200;2023-04-12T04:51:34;7.90;1.00
296;DHT22;132;48.770;9.200;2023-04-12T04:54:03;7.90;1.00
296;DHT22;132;48.770;9.200;2023-04-12T04:56:30;7.90;1.00
296;DHT22;132;48.770;9.200;2023-04-12T04:58:57;7.90;1.00
296;DHT22;132;48.770;9.200;2023-04-12T05:01:25;8.00;1.00
296;DHT22;132;48.770;9.200;2023-04-12T05:03:53;9.40;1.00
296;DHT22;132;48.770;9.200;2023-04-12T05:06:22;7.90;1.00
296;DHT22;132;48.770;9.200;2023-04-12T05:08:49;10.00;1.00
296;DHT22;132;48.770;9.200;2023-04-12T05:11:18;8.00;1.00
296;DHT22;132;48.770;9.200;2023-04-12T05:13:45;8.90;1.00
296;DHT22;132;48.770;9.200;2023-04-12T05:16:11;8.20;1.00
296;DHT22;132;48.770;9.200;2023-04-12T05:18:39;8.30;1.00
296;DHT22;132;48.770;9.200;2023-04-12T05:21:05;8.10;1.00
296;DHT22;132;48.770;9.200;2023-04-12T05:23:36;8.00;1.00
296;DHT22;132;48.770;9.200;2023-04-12T05:26:04;9.70;1.00
296;DHT22;132;48.770;9.200;2023-04-12T05:28:31;8.10;1.00
296;DHT22;132;48.770;9.200;2023-04-12T05:30:57;8.10;1.00
296;DHT22;132;48.770;9.200;2023-04-12T05:33:32;8.50;1.00
296;DHT22;132;48.770;9.200;2023-04-12T05:36:01;8.10;1.00
296;DHT22;132;48.770;9.200;2023-04-12T05:38:28;8.10;1.00
296;DHT22;132;48.770;9.200;2023-04-12T05:40:58;8.40;1.00
296;DHT22;132;48.770;9.200;2023-04-12T05:43:24;8.00;1.00
296;DHT22;132;48.770;9.200;2023-04-12T05:45:51;8.00;1.00
296;DHT22;132;48.770;9.200;2023-04-12T05:48:20;7.90;1.00
296;DHT22;132;48.770;9.200;2023-04-12T05:50:51;8.30;1.00
296;DHT22;132;48.770;9.200;2023-04-12T05:53:17;8.10;1.00
296;DHT22;132;48.770;9.200;2023-04-12T05:55:44;8.10;1.00
296;DHT22;132;48.770;9.200;2023-04-12T05:58:11;9.80;1.00
296;DHT22;132;48.770;9.200;2023-04-12T06:00:39;8.80;1.00
296;DHT22;132;48.770;9.200;2023-04-12T06:03:10;8.10;1.00
296;DHT22;132;48.770;9.200;2023-04-12T06:05:37;8.30;1.00
296;DHT22;132;48.770;9.200;2023-04-12T06:08:04;8.20;1.00
296;DHT22;132;48.770;9.200;2023-04-12T06:10:31;8.60;1.00
296;DHT22;132;48.770;9.200;2023-04-12T06:12:57;8.20;1.00
296;DHT22;132;48.770;9.200;2023-04-12T06:15:24;9.50;1.00
296;DHT22;132;48.770;9.200;2023-04-12T06:17:54;8.40;1.00
296;DHT22;132;48.770;9.200;2023-04-12T06:20:21;9.40;1.00
296;DHT22;132;48.770;9.200;2023-04-12T06:22:47;8.70;1.00
296;DHT22;132;48.770;9.200;2023-04-12T06:25:16;9.00;1.00
296;DHT22;132;48.770;9.200;2023-04-12T06:27:45;8.40;1.00
296;DHT22;132;48.770;9.200;2023-04-12T06:30:13;8.40;1.00
296;DHT22;132;48.770;9.200;2023-04-12T06:32:41;8.40;1.00
296;DHT22;132;48.770;9.200;2023-04-12T06:35:07;8.40;1.00
296;DHT22;132;48.770;9.200;2023-04-12T06:37:34;8.50;1.00
296;DHT22;132;48.770;9.200;2023-04-12T06:40:00;8.50;1.00
296;DHT22;132;48.770;9.200;2023-04-12T06:42:27;9.70;1.00
296;DHT22;132;48.770;9.200;2023-04-12T06:44:55;8.90;1.00
296;DHT22;132;48.770;9.200;2023-04-12T06:47:23;8.60;1.00
296;DHT22;132;48.770;9.200;2023-04-12T06:49:50;8.80;1.00
296;DHT22;132;48.770;9.200;2023-04-12T06:52:23;9.40;1.00
296;DHT22;132;48.770;9.200;2023-04-12T06:54:50;8.60;1.00
296;DHT22;132;48.770;9.200;2023-04-12T06:57:17;9.50;1.00
296;DHT22;132;48.770;9.200;2023-04-12T06:59:43;8.70;1.00
296;DHT22;132;48.770;9.200;2023-04-12T07:02:09;9.80;1.00
296;DHT22;132;48.770;9.200;2023-04-12T07:04:36;9.10;1.00
296;DHT22;132;48.770;9.200;2023-04-12T07:07:03;9.50;1.00
296;DHT22;132;48.770;9.200;2023-04-12T07:09:30;8.80;1.00
296;DHT22;132;48.770;9.200;2023-04-12T07:11:58;8.90;1.00
296;DHT22;132;48.770;9.200;2023-04-12T07:14:25;10.10;1.00
296;DHT22;132;48.770;9.200;2023-04-12T07:16:52;8.90;1.00
296;DHT22;132;48.770;9.200;2023-04-12T07:19:18;9.90;1.00
296;DHT22;132;48.770;9.200;2023-04-12T07:21:45;9.10;1.00
296;DHT22;132;48.770;9.200;2023-04-12T07:24:11;10.00;1.00
296;DHT22;132;48.770;9.200;2023-04-12T07:26:37;9.90;1.00
296;DHT22;132;48.770;9.200;2023-04-12T07:29:04;9.60;1.00
296;DHT22;132;48.770;9.200;2023-04-12T07:31:30;9.00;1.00
296;DHT22;132;48.770;9.200;2023-04-12T07:33:56;9.60;1.00
296;DHT22;132;48.770;9.200;2023-04-12T07:36:23;9.00;1.00
296;DHT22;132;48.770;9.200;2023-04-12T07:38:49;10.50;1.00
296;DHT22;132;48.770;9.200;2023-04-12T07:41:23;9.40;1.00
296;DHT22;132;48.770;9.200;2023-04-12T07:43:49;9.20;1.00
296;DHT22;132;48.770;9.200;2023-04-12T07:46:16;9.40;1.00
296;DHT22;132;48.770;9.200;2023-04-12T07:48:43;10.60;1.00
296;DHT22;132;48.770;9.200;2023-04-12T07:51:09;10.10;1.00
296;DHT22;132;48.770;9.200;2023-04-12T07:53:35;9.80;1.00
296;DHT22;132;48.770;9.200;2023-04-12T07:56:02;9.50;1.00
296;DHT22;132;48.770;9.200;2023-04-12T07:58:32;9.50;1.00
296;DHT22;132;48.770;9.200;2023-04-12T08:00:58;9.50;1.00
296;DHT22;132;48.770;9.200;2023-04-12T08:03:25;10.40;1.00
296;DHT22;132;48.770;9.200;2023-04-12T08:05:52;9.60;1.00
296;DHT22;132;48.770;9.200;2023-04-12T08:08:19;10.80;1.00
296;DHT22;132;48.770;9.200;2023-04-12T08:10:49;9.60;1.00
296;DHT22;132;48.770;9.200;2023-04-12T08:13:16;9.90;1.00
296;DHT22;132;48.770;9.200;2023-04-12T08:15:42;9.70;1.00
296;DHT22;132;48.770;9.200;2023-04-12T08:18:09;9.90;1.00
296;DHT22;132;48.770;9.200;2023-04-12T08:20:36;9.70;1.00
296;DHT22;132;48.770;9.200;2023-04-12T08:23:06;10.00;1.00
296;DHT22;132;48.770;9.200;2023-04-12T08:25:33;9.80;1.00
296;DHT22;132;48.770;9.200;2023-04-12T08:27:59;9.80;1.00
296;DHT22;132;48.770;9.200;2023-04-12T08:30:25;10.00;1.00
296;DHT22;132;48.770;9.200;2023-04-12T08:32:53;9.90;1.00
296;DHT22;132;48.770;9.200;2023-04-12T08:35:19;10.10;1.00
296;DHT22;132;48.770;9.200;2023-04-12T08:37:46;9.90;1.00
296;DHT22;132;48.770;9.200;2023-04-12T08:40:12;10.10;1.00
296;DHT22;132;48.770;9.200;2023-04-12T08:42:39;10.00;1.00
296;DHT22;132;48.770;9.200;2023-04-12T08:45:13;10.00;1.00
296;DHT22;132;48.770;9.200;2023-04-12T08:47:44;11.00;1.00
296;DHT22;132;48.770;9.200;2023-04-12T08:50:12;10.20;1.00
296;DHT22;132;48.770;9.200;2023-04-12T08:52:41;10.60;1.00
296;DHT22;132;48.770;9.200;2023-04-12T08:55:18;12.10;1.00
296;DHT22;132;48.770;9.200;2023-04-12T08:57:48;10.60;1.00
296;DHT22;132;48.770;9.200;2023-04-12T09:00:32;10.90;1.00
296;DHT22;132;48.770;9.200;2023-04-12T09:02:59;10.50;1.00
296;DHT22;132;48.770;9.200;2023-04-12T09:05:30;11.70;1.00
296;DHT22;132;48.770;9.200;2023-04-12T09:07:57;10.40;1.00
296;DHT22;132;48.770;9.200;2023-04-12T09:10:32;11.10;1.00
296;DHT22;132;48.770;9.200;2023-04-12T09:12:59;10.50;1.00
296;DHT22;132;48.770;9.200;2023-04-12T09:15:26;10.40;1.00
296;DHT22;132;48.770;9.200;2023-04-12T09:18:09;11.40;1.00
296;DHT22;132;48.770;9.200;2023-04-12T09:20:37;10.50;1.00
296;DHT22;132;48.770;9.200;2023-04-12T09:25:43;11.40;1.00
296;DHT22;132;48.770;9.200;2023-04-12T09:28:18;11.20;1.00
296;DHT22;132;48.770;9.200;2023-04-12T09:30:45;12.00;1.00
296;DHT22;132;48.770;9.200;2023-04-12T09:33:18;11.40;1.00
296;DHT22;132;48.770;9.200;2023-04-12T09:35:45;11.60;1.00
296;DHT22;132;48.770;9.200;2023-04-12T09:38:12;11.80;1.00
296;DHT22;132;48.770;9.200;2023-04-12T09:40:38;13.90;1.00
296;DHT22;132;48.770;9.200;2023-04-12T20:54:48;7.30;1.00
296;DHT22;132;48.770;9.200;2023-04-12T20:57:16;9.70;1.00
296;DHT22;132;48.770;9.200;2023-04-12T20:59:46;9.40;1.00
296;DHT22;132;48.770;9.200;2023-04-12T21:02:15;9.20;1.00
296;DHT22;132;48.770;9.200;2023-04-12T21:04:43;8.90;1.00
296;DHT22;132;48.770;9.200;2023-04-12T21:07:10;8.70;1.00
296;DHT22;132;48.770;9.200;2023-04-12T21:09:37;8.20;1.00
296;DHT22;132;48.770;9.200;2023-04-12T21:12:04;8.00;1.00
296;DHT22;132;48.770;9.200;2023-04-12T21:14:34;8.00;1.00
296;DHT22;132;48.770;9.200;2023-04-12T21:17:03;8.00;1.00
296;DHT22;132;48.770;9.200;2023-04-12T21:19:32;7.70;1.00
296;DHT22;132;48.770;9.200;2023-04-12T21:22:05;7.70;1.00
296;DHT22;132;48.770;9.200;2023-04-12T21:24:33;7.70;1.00
296;DHT22;132;48.770;9.200;2023-04-12T21:27:05;6.80;1.00
296;DHT22;132;48.770;9.200;2023-04-12T21:29:35;7.60;1.00
296;DHT22;132;48.770;9.200;2023-04-12T21:32:08;7.60;1.00
296;DHT22;132;48.770;9.200;2023-04-12T21:34:36;7.70;1.00
296;DHT22;132;48.770;9.200;2023-04-12T21:37:02;7.90;1.00
296;DHT22;132;48.770;9.200;2023-04-12T21:39:30;8.30;1.00
296;DHT22;132;48.770;9.200;2023-04-12T21:41:57;7.90;1.00
296;DHT22;132;48.770;9.200;2023-04-12T21:44:24;7.80;1.00
296;DHT22;132;48.770;9.200;2023-04-12T21:46:52;7.80;1.00
296;DHT22;132;48.770;9.200;2023-04-12T21:49:18;8.10;1.00
296;DHT22;132;48.770;9.200;2023-04-12T21:51:45;8.00;1.00
296;DHT22;132;48.770;9.200;2023-04-12T21:54:14;8.60;1.00
296;DHT22;132;48.770;9.200;2023-04-12T21:56:41;8.70;1.00
296;DHT22;132;48.770;9.200;2023-04-12T21:59:08;8.00;1.00
296;DHT22;132;48.770;9.200;2023-04-12T22:01:36;8.20;1.00
296;DHT22;132;48.770;9.200;2023-04-12T22:04:03;8.30;1.00
296;DHT22;132;48.770;9.200;2023-04-12T22:06:30;8.20;1.00
296;DHT22;132;48.770;9.200;2023-04-12T22:08:56;8.10;1.00
296;DHT22;132;48.770;9.200;2023-04-12T22:11:28;8.30;1.00
296;DHT22;132;48.770;9.200;2023-04-12T22:13:56;8.50;1.00
296;DHT22;132;48.770;9.200;2023-04-12T22:16:23;6.20;1.00
296;DHT22;132;48.770;9.200;2023-04-12T22:18:50;8.50;1.00
296;DHT22;132;48.770;9.200;2023-04-12T22:21:18;8.20;1.00
296;DHT22;132;48.770;9.200;2023-04-12T22:23:44;8.00;1.00
296;DHT22;132;48.770;9.200;2023-04-12T22:26:11;8.00;1.00
296;DHT22;132;48.770;9.200;2023-04-12T22:28:38;8.00;1.00
296;DHT22;132;48.770;9.200;2023-04-12T22:31:10;8.00;1.00
296;DHT22;132;48.770;9.200;2023-04-12T22:33:39;8.10;1.00
296;DHT22;132;48.770;9.200;2023-04-12T22:36:07;8.20;1.00
296;DHT22;132;48.770;9.200;2023-04-12T22:38:34;8.00;1.00
296;DHT22;132;48.770;9.200;2023-04-12T22:41:01;8.20;1.00
296;DHT22;132;48.770;9.200;2023-04-12T22:43:31;8.20;1.00
296;DHT22;132;48.770;9.200;2023-04-12T22:46:08;8.30;1.00
296;DHT22;132;48.770;9.200;2023-04-12T22:48:43;8.10;1.00
296;DHT22;132;48.770;9.200;2023-04-12T22:51:25;8.10;1.00
296;DHT22;132;48.770;9.200;2023-04-12T22:53:54;7.90;1.00
296;DHT22;132;48.770;9.200;2023-04-12T22:56:25;8.40;1.00
296;DHT22;132;48.770;9.200;2023-04-12T22:58:58;7.90;1.00
296;DHT22;132;48.770;9.200;2023-04-12T23:01:25;8.30;1.00
296;DHT22;132;48.770;9.200;2023-04-12T23:03:54;8.10;1.00
296;DHT22;132;48.770;9.200;2023-04-12T23:06:21;7.90;1.00
296;DHT22;132;48.770;9.200;2023-04-12T23:08:48;8.60;1.00
296;DHT22;132;48.770;9.200;2023-04-12T23:11:15;7.70;1.00
296;DHT22;132;48.770;9.200;2023-04-12T23:13:42;8.10;1.00
296;DHT22;132;48.770;9.200;2023-04-12T23:16:08;8.10;1.00
296;DHT22;132;48.770;9.200;2023-04-12T23:18:35;7.70;1.00
296;DHT22;132;48.770;9.200;2023-04-12T23:21:03;8.40;1.00
296;DHT22;132;48.770;9.200;2023-04-12T23:23:30;7.80;1.00
296;DHT22;132;48.770;9.200;2023-04-12T23:25:57;7.70;1.00
296;DHT22;132;48.770;9.200;2023-04-12T23:28:24;7.90;1.00
296;DHT22;132;48.770;9.200;2023-04-12T23:30:51;7.60;1.00
296;DHT22;132;48.770;9.200;2023-04-12T23:33:20;7.70;1.00
296;DHT22;132;48.770;9.200;2023-04-12T23:35:49;7.60;1.00
296;DHT22;132;48.770;9.200;2023-04-12T23:38:17;7.60;1.00
296;DHT22;132;48.770;9.200;2023-04-12T23:41:01;7.70;1.00
296;DHT22;132;48.770;9.200;2023-04-12T23:43:30;7.50;1.00
296;DHT22;132;48.770;9.200;2023-04-12T23:45:58;7.30;1.00
296;DHT22;132;48.770;9.200;2023-04-12T23:48:25;7.70;1.00
296;DHT22;132;48.770;9.200;2023-04-12T23:50:56;7.50;1.00
296;DHT22;132;48.770;9.200;2023-04-12T23:53:27;7.30;1.00
296;DHT22;132;48.770;9.200;2023-04-12T23:55:56;7.70;1.00
296;DHT22;132;48.770;9.200;2023-04-12T23:58:23;7.50;1.00
